createdAt,value
2019-01-20T00:02:09.158Z,-2.35
2019-01-20T00:04:36.947Z,-2.41
2019-01-20T00:07:04.833Z,-2.47
2019-01-20T00:09:32.612Z,-2.50
2019-01-20T00:12:00.324Z,-2.42
2019-01-20T00:14:28.106Z,-2.51
2019-01-20T00:16:55.854Z,-2.61
2019-01-20T00:19:23.657Z,-2.71
2019-01-20T00:21:51.515Z,-2.59
2019-01-20T00:24:19.346Z,-2.60
2019-01-20T00:26:47.104Z,-2.59
2019-01-20T00:29:14.891Z,-2.69
2019-01-20T00:31:42.643Z,-2.67
2019-01-20T00:34:18.089Z,-2.68
2019-01-20T00:36:52.721Z,-2.75
2019-01-20T00:39:20.475Z,-2.62
2019-01-20T00:41:53.449Z,-2.63
2019-01-20T00:44:26.080Z,-2.72
2019-01-20T00:46:53.815Z,-2.67
2019-01-20T00:49:21.623Z,-2.73
2019-01-20T00:51:49.385Z,-2.70
2019-01-20T00:54:17.270Z,-2.70
2019-01-20T00:56:45.009Z,-2.61
2019-01-20T00:59:12.801Z,-2.66
2019-01-20T01:01:40.573Z,-2.67
2019-01-20T01:04:08.363Z,-2.69
2019-01-20T01:06:36.140Z,-2.68
2019-01-20T01:09:07.416Z,-2.70
2019-01-20T01:11:35.243Z,-2.73
2019-01-20T01:14:03.597Z,-2.84
2019-01-20T01:16:47.087Z,-2.84
2019-01-20T01:19:14.978Z,-2.90
2019-01-20T01:21:50.089Z,-2.86
2019-01-20T01:24:25.413Z,-2.79
2019-01-20T01:27:02.700Z,-2.73
2019-01-20T01:29:43.688Z,-2.81
2019-01-20T01:32:11.551Z,-2.79
2019-01-20T01:34:39.298Z,-2.89
2019-01-20T01:37:07.148Z,-2.90
2019-01-20T01:39:34.864Z,-2.88
2019-01-20T01:42:03.135Z,-2.91
2019-01-20T01:44:30.896Z,-2.93
2019-01-20T01:46:58.652Z,-2.87
2019-01-20T01:49:26.399Z,-2.92
2019-01-20T01:51:54.152Z,-2.94
2019-01-20T01:54:21.912Z,-2.92
2019-01-20T01:56:49.742Z,-2.95
2019-01-20T01:59:17.453Z,-3.03
2019-01-20T02:01:46.514Z,-3.24
2019-01-20T02:04:14.233Z,-3.18
2019-01-20T02:06:41.994Z,-3.20
2019-01-20T02:09:09.736Z,-3.32
2019-01-20T02:11:37.528Z,-3.21
2019-01-20T02:14:05.386Z,-3.05
2019-01-20T02:16:33.138Z,-2.97
2019-01-20T02:19:00.904Z,-3.08
2019-01-20T02:21:28.662Z,-3.15
2019-01-20T02:23:56.440Z,-3.15
2019-01-20T02:26:24.219Z,-3.24
2019-01-20T02:28:51.966Z,-3.35
2019-01-20T02:31:19.726Z,-3.40
2019-01-20T02:33:47.489Z,-3.43
2019-01-20T02:36:15.274Z,-3.32
2019-01-20T02:38:43.017Z,-3.40
2019-01-20T02:41:10.814Z,-3.35
2019-01-20T02:43:38.540Z,-3.57
2019-01-20T02:46:06.318Z,-3.59
2019-01-20T02:48:34.102Z,-3.58
2019-01-20T02:51:01.842Z,-3.39
2019-01-20T02:53:29.689Z,-3.39
2019-01-20T02:55:57.446Z,-3.34
2019-01-20T02:58:25.243Z,-3.39
2019-01-20T03:00:53.031Z,-3.49
2019-01-20T03:03:20.790Z,-3.54
2019-01-20T03:05:48.542Z,-3.48
2019-01-20T03:08:16.303Z,-3.49
2019-01-20T03:10:44.063Z,-3.45
2019-01-20T03:13:11.820Z,-3.35
2019-01-20T03:15:39.926Z,-3.36
2019-01-20T03:18:07.685Z,-3.50
2019-01-20T03:20:35.455Z,-3.49
2019-01-20T03:23:03.221Z,-3.67
2019-01-20T03:25:30.949Z,-3.68
2019-01-20T03:27:58.731Z,-3.77
2019-01-20T03:30:26.489Z,-3.68
2019-01-20T03:32:54.273Z,-3.65
2019-01-20T03:35:25.744Z,-3.55
2019-01-20T03:37:53.615Z,-3.50
2019-01-20T03:40:21.701Z,-3.48
2019-01-20T03:42:49.758Z,-3.65
2019-01-20T03:45:18.371Z,-3.67
2019-01-20T03:47:46.121Z,-3.56
2019-01-20T03:50:15.098Z,-3.47
2019-01-20T03:52:42.940Z,-3.69
2019-01-20T03:55:12.852Z,-3.74
2019-01-20T03:57:40.610Z,-3.76
2019-01-20T04:00:15.850Z,-3.90
2019-01-20T04:02:44.485Z,-3.96
2019-01-20T04:05:12.409Z,-3.95
2019-01-20T04:07:40.223Z,-3.77
2019-01-20T04:10:11.609Z,-3.75
2019-01-20T04:12:39.406Z,-3.86
2019-01-20T04:15:07.662Z,-3.79
2019-01-20T04:17:35.375Z,-3.79
2019-01-20T04:20:04.036Z,-3.88
2019-01-20T04:22:31.764Z,-4.02
2019-01-20T04:24:59.546Z,-3.96
2019-01-20T04:27:27.302Z,-3.86
2019-01-20T04:29:55.058Z,-3.84
2019-01-20T04:32:22.830Z,-3.85
2019-01-20T04:34:50.631Z,-4.01
2019-01-20T04:37:18.375Z,-4.08
2019-01-20T04:39:46.128Z,-4.04
2019-01-20T04:42:13.881Z,-3.90
2019-01-20T04:44:41.812Z,-3.77
2019-01-20T04:47:09.570Z,-3.65
2019-01-20T04:49:37.794Z,-3.64
2019-01-20T04:52:05.532Z,-3.60
2019-01-20T04:54:33.276Z,-3.59
2019-01-20T04:57:01.003Z,-3.58
2019-01-20T04:59:28.927Z,-3.57
2019-01-20T05:01:56.829Z,-3.69
2019-01-20T05:04:24.604Z,-3.89
2019-01-20T05:06:52.501Z,-3.91
2019-01-20T05:09:20.269Z,-3.95
2019-01-20T05:11:48.051Z,-4.03
2019-01-20T05:14:15.853Z,-4.02
2019-01-20T05:16:43.781Z,-4.09
2019-01-20T05:19:11.551Z,-4.19
2019-01-20T05:21:39.277Z,-4.08
2019-01-20T05:24:07.059Z,-4.20
2019-01-20T05:26:34.801Z,-4.24
2019-01-20T05:29:02.539Z,-4.25
2019-01-20T05:31:30.285Z,-4.16
2019-01-20T05:33:58.013Z,-4.19
2019-01-20T05:36:25.953Z,-4.07
2019-01-20T05:38:53.703Z,-4.14
2019-01-20T05:41:21.432Z,-4.17
2019-01-20T05:43:49.174Z,-4.00
2019-01-20T05:46:16.905Z,-4.02
2019-01-20T05:48:44.642Z,-4.00
2019-01-20T05:51:12.396Z,-4.05
2019-01-20T05:53:40.138Z,-3.89
2019-01-20T05:56:07.902Z,-3.90
2019-01-20T05:58:36.097Z,-3.91
2019-01-20T06:01:03.869Z,-4.03
2019-01-20T06:03:31.906Z,-3.98
2019-01-20T06:05:59.692Z,-4.13
2019-01-20T06:08:27.454Z,-4.05
2019-01-20T06:10:55.194Z,-3.96
2019-01-20T06:13:22.962Z,-3.99
2019-01-20T06:15:50.707Z,-4.07
2019-01-20T06:18:18.482Z,-4.17
2019-01-20T06:20:46.231Z,-4.14
2019-01-20T06:23:14.009Z,-4.12
2019-01-20T06:25:41.744Z,-4.12
2019-01-20T06:28:09.492Z,-4.10
2019-01-20T06:30:37.228Z,-4.18
2019-01-20T06:33:04.976Z,-4.15
2019-01-20T06:35:32.740Z,-4.18
2019-01-20T06:38:00.492Z,-4.29
2019-01-20T06:40:28.425Z,-4.16
2019-01-20T06:43:01.864Z,-4.03
2019-01-20T06:45:25.866Z,-4.01
2019-01-20T06:47:53.631Z,-4.09
2019-01-20T06:50:21.840Z,-4.18
2019-01-20T06:52:49.607Z,-4.14
2019-01-20T06:55:17.366Z,-4.13
2019-01-20T06:57:47.044Z,-4.11
2019-01-20T07:00:24.496Z,-4.14
2019-01-20T07:02:52.276Z,-4.25
2019-01-20T07:05:20.207Z,-4.23
2019-01-20T07:07:48.446Z,-4.16
2019-01-20T07:10:16.542Z,-4.12
2019-01-20T07:12:44.491Z,-4.05
2019-01-20T07:15:15.685Z,-4.05
2019-01-20T07:17:53.244Z,-4.06
2019-01-20T07:20:21.323Z,-4.10
2019-01-20T07:22:49.397Z,-4.20
2019-01-20T07:25:21.050Z,-4.23
2019-01-20T07:27:53.581Z,-4.14
2019-01-20T07:30:24.459Z,-4.06
2019-01-20T07:33:02.455Z,-4.13
2019-01-20T07:35:30.689Z,-4.12
2019-01-20T07:37:58.445Z,-4.07
2019-01-20T07:40:32.314Z,-4.22
2019-01-20T07:43:00.129Z,-3.97
2019-01-20T07:45:27.859Z,-3.67
2019-01-20T07:47:55.643Z,-3.62
2019-01-20T07:50:26.654Z,-3.34
2019-01-20T07:52:54.495Z,-3.27
2019-01-20T07:55:22.363Z,-3.34
2019-01-20T07:57:50.230Z,-3.43
2019-01-20T08:00:20.498Z,-3.52
2019-01-20T08:02:48.251Z,-3.27
2019-01-20T08:05:16.810Z,-3.12
2019-01-20T08:07:44.604Z,-3.00
2019-01-20T08:10:16.531Z,-2.71
2019-01-20T08:12:44.448Z,-2.82
2019-01-20T08:15:12.473Z,-2.89
2019-01-20T08:17:43.906Z,-2.92
2019-01-20T08:20:43.242Z,-3.00
2019-01-20T08:23:13.264Z,-2.97
2019-01-20T08:26:20.124Z,-3.08
2019-01-20T08:28:56.136Z,-2.97
2019-01-20T08:31:42.040Z,-2.84
2019-01-20T08:34:14.278Z,-2.75
2019-01-20T08:36:48.371Z,-2.68
2019-01-20T08:39:16.107Z,-2.64
2019-01-20T08:41:59.938Z,-2.66
2019-01-20T08:44:32.520Z,-2.61
2019-01-20T08:47:35.110Z,-2.54
2019-01-20T08:50:09.743Z,-2.47
2019-01-20T08:52:37.545Z,-2.35
2019-01-20T08:55:28.577Z,-2.30
2019-01-20T08:57:56.322Z,-2.39
2019-01-20T09:00:34.460Z,-2.28
2019-01-20T09:03:29.354Z,-2.25
2019-01-20T09:05:59.484Z,-2.21
2019-01-20T09:08:27.434Z,-2.00
2019-01-20T09:10:55.182Z,-1.11
2019-01-20T09:13:23.177Z,2.36
2019-01-20T09:15:51.227Z,5.24
2019-01-20T09:18:18.980Z,5.13
2019-01-20T09:20:46.756Z,3.67
2019-01-20T09:23:14.570Z,2.35
2019-01-20T09:25:42.325Z,1.50
2019-01-20T09:28:10.073Z,0.77
2019-01-20T09:30:38.163Z,-0.11
2019-01-20T09:33:06.087Z,-0.38
2019-01-20T09:35:34.312Z,0.02
2019-01-20T09:38:10.882Z,0.13
2019-01-20T09:41:05.991Z,0.48
2019-01-20T09:43:46.829Z,3.56
2019-01-20T09:46:09.267Z,7.67
2019-01-20T09:48:48.468Z,9.75
2019-01-20T09:51:16.282Z,11.36
2019-01-20T09:53:49.678Z,10.63
2019-01-20T09:56:28.085Z,8.71
2019-01-20T09:59:00.180Z,7.05
2019-01-20T10:01:27.934Z,5.38
2019-01-20T10:03:59.109Z,4.27
2019-01-20T10:06:30.256Z,3.47
2019-01-20T10:09:06.557Z,2.80
2019-01-20T10:11:36.025Z,2.47
2019-01-20T10:14:07.087Z,2.14
2019-01-20T10:16:47.989Z,1.49
2019-01-20T10:19:16.350Z,1.42
2019-01-20T10:21:46.836Z,1.43
2019-01-20T10:24:20.783Z,1.32
2019-01-20T10:26:55.161Z,1.35
2019-01-20T10:29:23.217Z,1.38
2019-01-20T10:31:51.316Z,1.91
2019-01-20T10:34:19.130Z,2.59
2019-01-20T10:36:49.763Z,3.85
2019-01-20T10:39:18.122Z,6.21
2019-01-20T10:44:38.492Z,7.12
2019-01-20T10:47:09.376Z,6.29
2019-01-20T10:49:41.690Z,6.25
2019-01-20T10:52:18.228Z,7.42
2019-01-20T10:54:55.921Z,9.78
2019-01-20T10:57:29.475Z,12.28
2019-01-20T11:00:07.636Z,12.99
2019-01-20T11:02:47.845Z,15.94
2019-01-20T11:05:30.710Z,17.36
2019-01-20T11:08:31.205Z,15.58
2019-01-20T11:11:26.448Z,13.31
2019-01-20T11:14:10.467Z,11.02
2019-01-20T11:16:31.685Z,10.86
2019-01-20T11:19:28.945Z,11.21
2019-01-20T11:22:22.073Z,11.69
2019-01-20T11:25:08.525Z,11.92
2019-01-20T11:28:08.361Z,13.88
2019-01-20T11:30:51.028Z,15.39
2019-01-20T11:34:25.759Z,16.08
2019-01-20T11:37:27.345Z,17.34
2019-01-20T11:40:20.463Z,17.17
2019-01-20T11:46:05.649Z,19.08
2019-01-20T11:49:34.800Z,18.89
2019-01-20T11:52:32.106Z,18.86
2019-01-20T11:55:36.812Z,19.35
2019-01-20T11:58:34.973Z,18.16
2019-01-20T12:01:02.800Z,17.00
2019-01-20T12:03:57.419Z,16.52
2019-01-20T12:06:30.461Z,17.69
2019-01-20T12:09:15.832Z,18.84
2019-01-20T12:11:43.819Z,19.33
2019-01-20T12:14:11.719Z,17.08
2019-01-20T12:16:40.649Z,13.88
2019-01-20T12:19:08.420Z,11.27
2019-01-20T12:21:36.311Z,7.76
2019-01-20T12:24:06.541Z,7.48
2019-01-20T12:26:34.427Z,6.74
2019-01-20T12:29:02.275Z,5.93
2019-01-20T12:31:30.166Z,5.29
2019-01-20T12:33:58.135Z,4.91
2019-01-20T12:36:26.103Z,4.41
2019-01-20T12:38:53.951Z,3.87
2019-01-20T12:41:21.930Z,3.72
2019-01-20T12:43:49.708Z,3.50
2019-01-20T12:46:20.496Z,3.36
2019-01-20T12:48:48.495Z,3.40
2019-01-20T12:51:16.363Z,3.25
2019-01-20T12:53:44.320Z,3.14
2019-01-20T12:56:12.217Z,2.72
2019-01-20T12:58:40.042Z,2.68
2019-01-20T13:01:07.929Z,2.56
2019-01-20T13:03:35.821Z,2.65
2019-01-20T13:06:03.860Z,2.57
2019-01-20T13:08:39.133Z,2.65
2019-01-20T13:11:06.900Z,2.66
2019-01-20T13:13:34.739Z,2.65
2019-01-20T13:16:04.109Z,2.55
2019-01-20T13:18:33.679Z,2.67
2019-01-20T13:21:01.613Z,2.73
2019-01-20T13:23:31.682Z,2.58
2019-01-20T13:26:01.372Z,2.58
2019-01-20T13:28:30.193Z,2.74
2019-01-20T13:30:57.900Z,2.67
2019-01-20T13:33:29.409Z,2.56
2019-01-20T13:35:57.249Z,2.50
2019-01-20T13:41:26.357Z,2.39
2019-01-20T13:43:55.727Z,2.37
2019-01-20T13:46:55.538Z,2.33
2019-01-20T13:49:23.293Z,2.34
2019-01-20T13:51:51.103Z,2.27
2019-01-20T13:54:18.887Z,2.15
2019-01-20T13:56:46.693Z,2.07
2019-01-20T13:59:14.489Z,1.89
2019-01-20T14:01:42.271Z,2.00
2019-01-20T14:04:10.099Z,1.99
2019-01-20T14:06:37.942Z,2.00
2019-01-20T14:09:07.470Z,2.13
2019-01-20T14:11:39.934Z,2.12
2019-01-20T14:14:07.714Z,2.07
2019-01-20T14:16:35.540Z,1.93
2019-01-20T14:19:05.152Z,1.92
2019-01-20T14:21:32.890Z,1.92
2019-01-20T14:24:00.765Z,1.83
2019-01-20T14:26:31.106Z,1.71
2019-01-20T14:28:58.907Z,1.67
2019-01-20T14:31:26.706Z,1.77
2019-01-20T14:33:54.505Z,1.80
2019-01-20T14:36:22.285Z,1.78
2019-01-20T14:38:50.134Z,1.70
2019-01-20T14:41:17.939Z,1.72
2019-01-20T14:44:03.674Z,1.70
2019-01-20T14:46:38.952Z,1.67
2019-01-20T14:49:06.776Z,1.63
2019-01-20T14:51:38.820Z,1.63
2019-01-20T14:54:06.700Z,1.54
2019-01-20T14:56:34.542Z,1.47
2019-01-20T14:59:03.481Z,1.26
2019-01-20T15:01:31.371Z,1.08
2019-01-20T15:04:00.080Z,0.91
2019-01-20T15:06:27.920Z,0.86
2019-01-20T15:08:55.775Z,0.89
2019-01-20T15:11:23.577Z,1.03
2019-01-20T15:14:22.546Z,0.99
2019-01-20T15:16:50.547Z,0.91
2019-01-20T15:19:21.946Z,0.70
2019-01-20T15:21:49.915Z,0.61
2019-01-20T15:24:17.685Z,0.45
2019-01-20T15:26:45.447Z,0.32
2019-01-20T15:29:13.204Z,0.20
2019-01-20T15:31:40.992Z,0.22
2019-01-20T15:34:08.814Z,0.23
2019-01-20T15:36:36.613Z,0.14
2019-01-20T15:39:07.283Z,0.07
2019-01-20T15:41:35.073Z,0.07
2019-01-20T15:44:03.072Z,-0.10
2019-01-20T15:46:30.918Z,-0.20
2019-01-20T15:48:58.735Z,-0.11
2019-01-20T15:51:26.487Z,-0.09
2019-01-20T15:53:54.285Z,-0.11
2019-01-20T15:56:22.079Z,-0.15
2019-01-20T15:58:49.841Z,-0.34
2019-01-20T16:01:17.597Z,-0.41
2019-01-20T16:04:10.555Z,-0.42
2019-01-20T16:06:38.462Z,-0.45
2019-01-20T16:09:08.494Z,-0.60
2019-01-20T16:11:36.357Z,-0.50
2019-01-20T16:14:04.255Z,-0.53
2019-01-20T16:16:32.099Z,-0.60
2019-01-20T16:18:59.995Z,-0.63
2019-01-20T16:21:27.820Z,-0.74
2019-01-20T16:23:55.801Z,-0.84
2019-01-20T16:26:23.630Z,-0.86
2019-01-20T16:28:51.404Z,-0.80
2019-01-20T16:31:19.179Z,-0.82
2019-01-20T16:33:49.852Z,-0.81
2019-01-20T16:36:17.673Z,-0.86
2019-01-20T16:38:45.520Z,-0.90
2019-01-20T16:41:13.380Z,-0.93
2019-01-20T16:43:41.176Z,-1.00
2019-01-20T16:46:08.962Z,-0.99
2019-01-20T16:48:38.602Z,-1.01
2019-01-20T16:51:06.462Z,-0.98
2019-01-20T16:53:34.254Z,-0.99
2019-01-20T16:56:02.053Z,-0.92
2019-01-20T16:58:29.886Z,-0.83
2019-01-20T17:00:57.713Z,-0.82
2019-01-20T17:03:27.774Z,-0.79
2019-01-20T17:05:55.610Z,-0.77
2019-01-20T17:08:23.409Z,-0.78
2019-01-20T17:10:51.210Z,-0.82
2019-01-20T17:13:18.956Z,-0.79
2019-01-20T17:15:46.911Z,-0.81
2019-01-20T17:18:15.543Z,-0.86
2019-01-20T17:20:43.697Z,-0.91
2019-01-20T17:23:11.568Z,-0.88
2019-01-20T17:25:39.360Z,-0.88
2019-01-20T17:28:07.101Z,-0.94
2019-01-20T17:30:35.022Z,-1.02
2019-01-20T17:33:03.401Z,-1.08
2019-01-20T17:35:32.551Z,-1.20
2019-01-20T17:38:00.320Z,-1.40
2019-01-20T17:40:28.841Z,-1.67
2019-01-20T17:42:57.217Z,-1.81
2019-01-20T17:45:31.272Z,-1.75
2019-01-20T17:48:00.225Z,-1.77
2019-01-20T17:50:34.751Z,-1.85
2019-01-20T17:53:44.458Z,-1.80
2019-01-20T17:56:19.030Z,-1.76
2019-01-20T17:59:11.169Z,-1.62
2019-01-20T18:02:03.814Z,-1.61
2019-01-20T18:04:31.814Z,-1.49
2019-01-20T18:06:59.784Z,-1.45
2019-01-20T18:10:04.080Z,-1.38
2019-01-20T18:12:36.658Z,-1.46
2019-01-20T18:15:09.236Z,-1.19
2019-01-20T18:17:39.662Z,-1.14
2019-01-20T18:20:17.552Z,-1.13
2019-01-20T18:22:56.440Z,-1.06
2019-01-20T18:25:31.570Z,-1.12
2019-01-20T18:27:59.555Z,-1.19
2019-01-20T18:30:27.957Z,-1.11
2019-01-20T18:32:58.787Z,-1.18
2019-01-20T18:35:26.842Z,-1.33
2019-01-20T18:38:00.259Z,-1.38
2019-01-20T18:40:34.130Z,-1.45
2019-01-20T18:43:03.523Z,-1.64
2019-01-20T18:45:32.192Z,-1.82
2019-01-20T18:48:02.997Z,-1.90
2019-01-20T18:50:36.402Z,-1.90
2019-01-20T18:53:04.940Z,-1.92
2019-01-20T18:55:33.966Z,-1.93
2019-01-20T18:58:07.807Z,-2.13
2019-01-20T19:00:39.871Z,-1.97
2019-01-20T19:03:07.635Z,-1.84
2019-01-20T19:05:35.435Z,-1.79
2019-01-20T19:08:03.446Z,-1.72
2019-01-20T19:10:31.199Z,-1.77
2019-01-20T19:12:59.196Z,-1.88
2019-01-20T19:15:27.157Z,-1.95
2019-01-20T19:17:55.065Z,-1.98
2019-01-20T19:20:22.921Z,-2.18
2019-01-20T19:22:53.701Z,-2.16
2019-01-20T19:25:21.596Z,-2.25
2019-01-20T19:27:49.471Z,-2.27
2019-01-20T19:30:20.519Z,-2.33
2019-01-20T19:32:50.277Z,-2.22
2019-01-20T19:35:18.209Z,-2.20
2019-01-20T19:37:46.035Z,-2.28
2019-01-20T19:40:13.851Z,-2.29
2019-01-20T19:42:41.731Z,-2.09
2019-01-20T19:45:12.519Z,-2.04
2019-01-20T19:47:40.300Z,-2.04
2019-01-20T19:50:09.143Z,-2.06
2019-01-20T19:52:36.985Z,-2.04
2019-01-20T19:55:09.283Z,-2.04
2019-01-20T19:57:37.353Z,-2.01
2019-01-20T20:00:09.340Z,-2.03
2019-01-20T20:02:37.121Z,-2.08
2019-01-20T20:05:09.638Z,-2.11
2019-01-20T20:07:37.434Z,-2.25
2019-01-20T20:10:07.262Z,-2.32
2019-01-20T20:12:35.070Z,-2.54
2019-01-20T20:15:25.086Z,-2.51
2019-01-20T20:18:05.837Z,-2.50
2019-01-20T20:20:53.273Z,-2.51
2019-01-20T20:23:33.135Z,-2.42
2019-01-20T20:26:20.404Z,-2.29
2019-01-20T20:29:00.390Z,-2.23
2019-01-20T20:31:47.840Z,-2.27
2019-01-20T20:34:28.331Z,-2.25
2019-01-20T20:37:15.562Z,-2.23
2019-01-20T20:39:55.546Z,-2.20
2019-01-20T20:42:43.008Z,-2.25
2019-01-20T20:45:24.790Z,-2.28
2019-01-20T20:48:12.051Z,-2.24
2019-01-20T20:50:55.700Z,-2.28
2019-01-20T20:53:43.495Z,-2.32
2019-01-20T20:56:24.398Z,-2.43
2019-01-20T20:59:12.754Z,-2.49
2019-01-20T21:01:53.455Z,-2.45
2019-01-20T21:04:40.969Z,-2.38
2019-01-20T21:07:29.820Z,-2.38
2019-01-20T21:10:11.616Z,-2.42
2019-01-20T21:13:16.721Z,-2.38
2019-01-20T21:15:57.049Z,-2.40
2019-01-20T21:18:37.347Z,-2.44
2019-01-20T21:21:26.656Z,-2.60
2019-01-20T21:24:07.447Z,-2.57
2019-01-20T21:26:54.712Z,-2.59
2019-01-20T21:29:34.827Z,-2.61
2019-01-20T21:32:22.064Z,-2.67
2019-01-20T21:35:03.044Z,-2.75
2019-01-20T21:37:50.507Z,-2.75
2019-01-20T21:40:31.269Z,-2.79
2019-01-20T21:43:18.497Z,-2.70
2019-01-20T21:46:05.941Z,-2.66
2019-01-20T21:48:46.442Z,-2.73
2019-01-20T21:51:53.283Z,-2.69
2019-01-20T21:54:33.701Z,-2.68
2019-01-20T21:57:21.041Z,-2.69
2019-01-20T22:00:02.964Z,-2.76
2019-01-20T22:02:50.178Z,-2.78
2019-01-20T22:09:20.194Z,-2.74
2019-01-20T22:12:00.251Z,-2.77
2019-01-20T22:14:47.459Z,-2.82
2019-01-20T22:17:27.746Z,-2.86
2019-01-20T22:20:16.719Z,-2.89
2019-01-20T22:22:56.960Z,-2.89
2019-01-20T22:25:44.374Z,-2.97
2019-01-20T22:28:24.669Z,-2.95
2019-01-20T22:31:11.949Z,-2.89
2019-01-20T22:33:52.120Z,-2.93
2019-01-20T22:36:39.367Z,-2.94
2019-01-20T22:39:19.570Z,-2.98
2019-01-20T22:42:07.016Z,-3.11
2019-01-20T22:44:46.930Z,-3.21
2019-01-20T22:47:34.162Z,-3.16
2019-01-20T22:50:14.382Z,-3.10
2019-01-20T22:53:01.701Z,-3.09
2019-01-20T22:55:48.948Z,-3.14
2019-01-20T22:58:36.208Z,-3.14
2019-01-20T23:01:20.119Z,-3.15
2019-01-20T23:04:07.608Z,-3.18
2019-01-20T23:06:49.004Z,-3.20
2019-01-20T23:09:36.364Z,-3.19
2019-01-20T23:12:16.734Z,-3.30
2019-01-20T23:18:11.744Z,-3.41
2019-01-20T23:20:59.154Z,-3.52
2019-01-20T23:23:39.748Z,-3.53
2019-01-20T23:30:32.883Z,-3.63
2019-01-20T23:36:25.451Z,-3.64
2019-01-20T23:39:12.771Z,-3.42
2019-01-20T23:41:53.611Z,-3.39
2019-01-20T23:44:40.851Z,-3.39
2019-01-20T23:47:21.723Z,-3.41
2019-01-20T23:50:09.382Z,-3.44
2019-01-20T23:52:49.607Z,-3.39
2019-01-20T23:55:36.885Z,-3.33
2019-01-20T23:58:24.071Z,-3.30
